createdAt,value
2019-03-10T00:02:12.915Z,82.60
2019-03-10T00:04:42.805Z,82.20
2019-03-10T00:07:12.751Z,82.30
2019-03-10T00:09:42.715Z,82.30
2019-03-10T00:12:13.050Z,82.10
2019-03-10T00:14:43.917Z,82.30
2019-03-10T00:17:13.815Z,82.30
2019-03-10T00:19:43.929Z,82.10
2019-03-10T00:22:14.115Z,82.10
2019-03-10T00:24:44.415Z,82.00
2019-03-10T00:27:14.281Z,82.00
2019-03-10T00:29:44.087Z,81.60
2019-03-10T00:32:13.876Z,81.80
2019-03-10T00:34:44.408Z,81.70
2019-03-10T00:37:14.155Z,81.60
2019-03-10T00:40:33.108Z,81.80
2019-03-10T00:43:38.796Z,81.70
2019-03-10T00:46:51.803Z,81.70
2019-03-10T00:50:05.713Z,82.00
2019-03-10T00:52:45.521Z,82.30
2019-03-10T00:55:15.306Z,82.30
2019-03-10T00:57:45.874Z,82.10
2019-03-10T01:00:18.097Z,82.10
2019-03-10T01:02:48.013Z,81.90
2019-03-10T01:05:17.977Z,82.10
2019-03-10T01:07:47.901Z,82.10
2019-03-10T01:10:17.756Z,82.20
2019-03-10T01:12:47.815Z,82.00
2019-03-10T01:15:18.743Z,82.30
2019-03-10T01:17:49.481Z,82.10
2019-03-10T01:20:19.540Z,82.20
2019-03-10T01:22:49.373Z,82.20
2019-03-10T01:25:19.598Z,82.10
2019-03-10T01:27:49.528Z,82.40
2019-03-10T01:30:20.011Z,82.20
2019-03-10T01:33:27.013Z,82.60
2019-03-10T01:35:56.928Z,82.70
2019-03-10T01:38:27.164Z,82.60
2019-03-10T01:40:56.935Z,82.50
2019-03-10T01:43:27.433Z,82.50
2019-03-10T01:45:57.136Z,82.30
2019-03-10T01:48:27.684Z,82.50
2019-03-10T01:50:57.493Z,82.40
2019-03-10T01:53:27.961Z,82.10
2019-03-10T01:55:57.762Z,82.30
2019-03-10T01:58:28.936Z,82.60
2019-03-10T02:00:58.958Z,82.50
2019-03-10T02:03:32.472Z,82.80
2019-03-10T02:06:02.287Z,82.90
2019-03-10T02:08:32.188Z,82.70
2019-03-10T02:11:02.000Z,82.60
2019-03-10T02:13:32.419Z,82.80
2019-03-10T02:16:02.381Z,82.90
2019-03-10T02:18:32.848Z,82.90
2019-03-10T02:21:03.079Z,83.00
2019-03-10T02:23:33.535Z,83.00
2019-03-10T02:26:03.514Z,83.50
2019-03-10T02:28:33.362Z,83.40
2019-03-10T02:31:03.636Z,83.70
2019-03-10T02:33:36.485Z,83.90
2019-03-10T02:36:06.363Z,83.80
2019-03-10T02:38:37.026Z,83.80
2019-03-10T02:41:07.259Z,83.90
2019-03-10T02:43:38.080Z,83.90
2019-03-10T02:46:07.889Z,84.10
2019-03-10T02:48:38.200Z,83.90
2019-03-10T02:51:07.973Z,84.10
2019-03-10T02:53:37.855Z,84.00
2019-03-10T02:56:07.593Z,84.10
2019-03-10T02:58:38.080Z,84.20
2019-03-10T03:01:08.593Z,84.00
2019-03-10T03:03:39.136Z,84.10
2019-03-10T03:06:08.960Z,84.10
2019-03-10T03:08:42.201Z,84.20
2019-03-10T03:11:11.865Z,84.20
2019-03-10T03:13:42.350Z,84.20
2019-03-10T03:16:12.710Z,84.00
2019-03-10T03:18:42.449Z,84.30
2019-03-10T03:21:12.187Z,84.20
2019-03-10T03:23:43.214Z,84.10
2019-03-10T03:26:13.206Z,84.30
2019-03-10T03:28:42.942Z,83.80
2019-03-10T03:31:12.786Z,83.10
2019-03-10T03:33:43.448Z,82.10
2019-03-10T03:36:23.660Z,79.80
2019-03-10T03:39:00.366Z,77.60
2019-03-10T03:41:30.341Z,75.10
2019-03-10T03:44:00.062Z,72.40
2019-03-10T03:46:30.773Z,72.80
2019-03-10T03:49:00.514Z,73.90
2019-03-10T03:51:30.399Z,76.20
2019-03-10T03:54:00.612Z,76.90
2019-03-10T03:56:30.449Z,78.70
2019-03-10T03:59:00.869Z,79.20
2019-03-10T04:01:37.810Z,79.80
2019-03-10T04:04:08.048Z,80.30
2019-03-10T04:06:38.887Z,80.60
2019-03-10T04:09:09.399Z,80.60
2019-03-10T04:11:39.221Z,80.00
2019-03-10T04:14:09.328Z,80.80
2019-03-10T04:16:39.419Z,80.60
2019-03-10T04:19:09.276Z,80.40
2019-03-10T04:21:39.226Z,80.80
2019-03-10T04:24:10.111Z,80.30
2019-03-10T04:26:39.819Z,80.50
2019-03-10T04:29:09.703Z,80.50
2019-03-10T04:31:39.464Z,80.50
2019-03-10T04:34:09.259Z,81.00
2019-03-10T04:36:39.020Z,81.80
2019-03-10T04:39:08.973Z,81.70
2019-03-10T04:41:39.131Z,83.50
2019-03-10T04:44:09.906Z,85.10
2019-03-10T04:46:39.741Z,85.10
2019-03-10T04:49:10.031Z,86.90
2019-03-10T04:51:39.866Z,87.50
2019-03-10T04:54:09.731Z,89.10
2019-03-10T04:56:46.472Z,90.60
2019-03-10T04:59:16.209Z,90.30
2019-03-10T05:01:46.031Z,90.70
2019-03-10T05:04:15.987Z,91.40
2019-03-10T05:06:46.030Z,91.50
2019-03-10T05:09:15.785Z,91.60
2019-03-10T05:11:45.959Z,91.70
2019-03-10T05:14:16.620Z,91.90
2019-03-10T05:16:47.501Z,92.60
2019-03-10T05:19:17.274Z,92.60
2019-03-10T05:21:47.090Z,93.00
2019-03-10T05:24:17.591Z,93.20
2019-03-10T05:26:47.354Z,93.60
2019-03-10T05:29:17.283Z,93.40
2019-03-10T05:31:47.128Z,93.60
2019-03-10T05:34:17.227Z,93.80
2019-03-10T05:36:47.005Z,93.70
2019-03-10T05:39:16.914Z,94.20
2019-03-10T05:41:46.740Z,93.90
2019-03-10T05:44:16.558Z,94.30
2019-03-10T05:46:46.349Z,94.60
2019-03-10T05:49:16.630Z,94.50
2019-03-10T05:51:46.852Z,94.70
2019-03-10T05:54:16.831Z,94.70
2019-03-10T05:56:46.718Z,94.80
2019-03-10T05:59:16.640Z,95.20
2019-03-10T06:01:47.157Z,95.20
2019-03-10T06:04:17.550Z,95.30
2019-03-10T06:06:47.649Z,95.20
2019-03-10T06:09:18.104Z,95.30
2019-03-10T06:11:48.208Z,95.40
2019-03-10T06:14:18.402Z,95.70
2019-03-10T06:16:48.165Z,96.00
2019-03-10T06:19:18.077Z,96.10
2019-03-10T06:21:47.839Z,96.10
2019-03-10T06:24:17.696Z,96.20
2019-03-10T06:26:47.512Z,96.50
2019-03-10T06:29:17.374Z,96.40
2019-03-10T06:31:47.286Z,96.60
2019-03-10T06:34:18.066Z,96.80
2019-03-10T06:36:47.825Z,96.80
2019-03-10T06:39:17.783Z,97.00
2019-03-10T06:41:47.710Z,97.40
2019-03-10T06:44:17.451Z,97.60
2019-03-10T06:46:47.126Z,97.50
2019-03-10T06:49:17.244Z,97.70
2019-03-10T06:51:47.115Z,97.60
2019-03-10T06:54:17.625Z,97.60
2019-03-10T06:56:47.532Z,97.80
2019-03-10T06:59:17.206Z,98.00
2019-03-10T07:01:47.083Z,97.90
2019-03-10T07:04:17.253Z,97.80
2019-03-10T07:06:47.304Z,98.10
2019-03-10T07:09:17.130Z,98.00
2019-03-10T07:11:46.944Z,97.90
2019-03-10T07:14:16.915Z,97.80
2019-03-10T07:16:46.689Z,97.90
2019-03-10T07:19:16.465Z,97.70
2019-03-10T07:21:46.301Z,97.40
2019-03-10T07:24:16.259Z,97.30
2019-03-10T07:26:46.272Z,97.30
2019-03-10T07:29:28.039Z,97.20
2019-03-10T07:32:18.695Z,96.60
2019-03-10T07:35:00.485Z,96.40
2019-03-10T07:38:07.329Z,96.40
2019-03-10T07:40:44.697Z,96.20
2019-03-10T07:43:37.074Z,96.20
2019-03-10T07:46:31.526Z,96.10
2019-03-10T07:49:11.005Z,96.00
2019-03-10T07:51:49.439Z,95.90
2019-03-10T07:54:44.980Z,95.80
2019-03-10T07:57:48.561Z,95.70
2019-03-10T08:00:37.401Z,95.90
2019-03-10T08:03:34.331Z,96.00
2019-03-10T08:06:27.049Z,96.10
2019-03-10T08:09:14.755Z,96.20
2019-03-10T08:12:09.186Z,96.00
2019-03-10T08:15:04.266Z,96.10
2019-03-10T08:17:48.124Z,95.80
2019-03-10T08:20:23.816Z,95.80
2019-03-10T08:23:03.651Z,95.50
2019-03-10T08:25:52.481Z,95.40
2019-03-10T08:28:51.202Z,95.20
2019-03-10T08:31:47.028Z,95.30
2019-03-10T08:34:34.853Z,95.20
2019-03-10T08:37:13.264Z,95.10
2019-03-10T08:40:00.534Z,94.90
2019-03-10T08:42:37.687Z,94.90
2019-03-10T08:45:33.004Z,94.60
2019-03-10T08:48:20.414Z,94.40
2019-03-10T08:50:57.700Z,94.20
2019-03-10T08:53:48.929Z,94.00
2019-03-10T08:56:32.406Z,93.90
2019-03-10T08:59:21.195Z,93.60
2019-03-10T09:01:58.572Z,93.90
2019-03-10T09:04:50.153Z,93.70
2019-03-10T09:07:48.936Z,93.80
2019-03-10T09:10:26.740Z,93.90
2019-03-10T09:13:13.735Z,94.20
2019-03-10T09:15:50.717Z,94.20
2019-03-10T09:18:45.197Z,93.90
2019-03-10T09:21:33.876Z,94.10
2019-03-10T09:24:38.551Z,94.20
2019-03-10T09:27:22.740Z,94.70
2019-03-10T09:30:24.931Z,94.70
2019-03-10T09:33:12.407Z,94.70
2019-03-10T09:36:17.900Z,94.70
2019-03-10T09:38:57.785Z,95.00
2019-03-10T09:41:46.750Z,94.80
2019-03-10T09:44:41.852Z,94.90
2019-03-10T09:47:35.208Z,95.10
2019-03-10T09:50:27.652Z,95.30
2019-03-10T09:53:13.286Z,95.10
2019-03-10T09:56:05.205Z,95.00
2019-03-10T09:58:54.719Z,94.90
2019-03-10T10:01:41.733Z,94.50
2019-03-10T10:04:33.579Z,94.70
2019-03-10T10:07:20.644Z,94.90
2019-03-10T10:10:09.453Z,95.50
2019-03-10T10:13:07.654Z,95.90
2019-03-10T10:15:52.066Z,96.10
2019-03-10T10:18:30.152Z,95.90
2019-03-10T10:21:17.418Z,96.10
2019-03-10T10:24:01.673Z,96.50
2019-03-10T10:26:53.069Z,96.50
2019-03-10T10:29:36.406Z,96.70
2019-03-10T10:32:17.523Z,96.70
2019-03-10T10:35:13.239Z,97.10
2019-03-10T10:38:03.418Z,97.60
2019-03-10T10:41:03.379Z,97.50
2019-03-10T10:43:51.406Z,98.00
2019-03-10T10:46:40.275Z,98.10
2019-03-10T10:49:12.379Z,98.30
2019-03-10T10:52:07.328Z,98.30
2019-03-10T10:54:56.774Z,98.30
2019-03-10T10:57:32.972Z,98.70
2019-03-10T11:00:37.493Z,98.30
2019-03-10T11:03:26.941Z,98.40
2019-03-10T11:06:14.129Z,98.10
2019-03-10T11:09:11.142Z,97.90
2019-03-10T11:12:05.440Z,98.20
2019-03-10T11:14:52.084Z,98.30
2019-03-10T11:17:37.060Z,97.90
2019-03-10T11:20:23.206Z,97.80
2019-03-10T11:23:15.380Z,97.40
2019-03-10T11:26:04.249Z,97.30
2019-03-10T11:29:03.938Z,97.60
2019-03-10T11:31:46.408Z,97.60
2019-03-10T11:34:35.353Z,97.30
2019-03-10T11:37:14.898Z,96.90
2019-03-10T11:40:03.765Z,96.70
2019-03-10T11:42:50.905Z,96.50
2019-03-10T11:45:39.161Z,96.20
2019-03-10T11:48:38.914Z,95.90
2019-03-10T11:51:30.736Z,96.00
2019-03-10T11:54:23.851Z,96.20
2019-03-10T11:57:05.499Z,95.40
2019-03-10T11:59:41.076Z,95.10
2019-03-10T12:02:30.897Z,94.90
2019-03-10T12:05:19.609Z,94.90
2019-03-10T12:08:05.125Z,94.00
2019-03-10T12:10:35.562Z,93.70
2019-03-10T12:13:06.661Z,93.80
2019-03-10T12:15:36.890Z,94.20
2019-03-10T12:18:08.128Z,94.30
2019-03-10T12:20:37.926Z,94.20
2019-03-10T12:23:09.299Z,94.30
2019-03-10T12:25:39.104Z,94.10
2019-03-10T12:28:10.263Z,93.80
2019-03-10T12:30:40.051Z,93.20
2019-03-10T12:33:10.841Z,92.80
2019-03-10T12:35:41.901Z,92.60
2019-03-10T12:38:12.470Z,92.20
2019-03-10T12:40:43.058Z,91.80
2019-03-10T12:43:13.716Z,91.50
2019-03-10T12:45:43.607Z,91.70
2019-03-10T12:48:14.239Z,91.10
2019-03-10T12:50:43.977Z,91.00
2019-03-10T12:53:14.533Z,90.30
2019-03-10T12:55:44.642Z,90.10
2019-03-10T12:58:15.163Z,90.20
2019-03-10T13:00:45.047Z,89.90
2019-03-10T13:03:18.182Z,90.20
2019-03-10T13:05:48.021Z,89.30
2019-03-10T13:08:17.817Z,89.10
2019-03-10T13:10:48.491Z,88.80
2019-03-10T13:13:19.117Z,89.30
2019-03-10T13:15:49.096Z,88.90
2019-03-10T13:18:19.610Z,88.00
2019-03-10T13:20:49.422Z,87.80
2019-03-10T13:23:19.950Z,87.80
2019-03-10T13:25:49.921Z,88.40
2019-03-10T13:28:20.458Z,88.50
2019-03-10T13:30:50.187Z,88.50
2019-03-10T13:33:20.867Z,87.40
2019-03-10T13:35:50.655Z,86.60
2019-03-10T13:38:20.499Z,86.60
2019-03-10T13:40:50.268Z,86.40
2019-03-10T13:43:20.977Z,85.50
2019-03-10T13:45:51.056Z,85.90
2019-03-10T13:48:21.416Z,86.10
2019-03-10T13:50:51.263Z,85.60
2019-03-10T13:53:21.826Z,84.00
2019-03-10T13:55:51.876Z,82.90
2019-03-10T13:58:22.410Z,82.90
2019-03-10T14:00:52.140Z,83.60
2019-03-10T14:03:22.774Z,83.40
2019-03-10T14:05:52.771Z,83.50
2019-03-10T14:08:23.266Z,82.80
2019-03-10T14:10:53.097Z,81.10
2019-03-10T14:13:23.550Z,81.70
2019-03-10T14:15:53.513Z,79.10
2019-03-10T14:18:24.087Z,78.40
2019-03-10T14:20:54.162Z,77.80
2019-03-10T14:23:23.828Z,77.30
2019-03-10T14:25:53.721Z,77.00
2019-03-10T14:28:24.237Z,77.10
2019-03-10T14:30:54.435Z,76.50
2019-03-10T14:33:24.689Z,76.60
2019-03-10T14:35:54.651Z,76.80
2019-03-10T14:38:25.730Z,76.20
2019-03-10T14:40:55.553Z,76.60
2019-03-10T14:43:26.088Z,76.60
2019-03-10T14:45:56.024Z,77.20
2019-03-10T14:48:26.599Z,76.50
2019-03-10T14:50:56.492Z,76.50
2019-03-10T14:53:26.344Z,77.30
2019-03-10T14:55:57.139Z,77.00
2019-03-10T14:58:27.603Z,79.10
2019-03-10T15:00:57.677Z,80.50
2019-03-10T15:03:28.140Z,79.50
2019-03-10T15:05:57.990Z,79.10
2019-03-10T15:08:28.188Z,79.20
2019-03-10T15:10:58.001Z,79.00
2019-03-10T15:13:28.728Z,78.10
2019-03-10T15:15:59.039Z,78.60
2019-03-10T15:18:29.432Z,79.00
2019-03-10T15:20:59.495Z,78.90
2019-03-10T15:23:30.551Z,78.30
2019-03-10T15:26:00.721Z,78.80
2019-03-10T15:28:31.253Z,81.70
2019-03-10T15:31:01.251Z,85.70
2019-03-10T15:33:30.907Z,87.30
2019-03-10T15:36:00.691Z,87.80
2019-03-10T15:38:31.120Z,86.40
2019-03-10T15:41:00.924Z,86.60
2019-03-10T15:43:31.450Z,86.40
2019-03-10T15:46:01.187Z,86.00
2019-03-10T15:48:31.729Z,85.60
2019-03-10T15:51:01.545Z,85.10
2019-03-10T15:53:31.727Z,84.60
2019-03-10T15:56:01.819Z,83.20
2019-03-10T15:58:32.471Z,81.90
2019-03-10T16:01:04.079Z,81.80
2019-03-10T16:03:34.550Z,81.20
2019-03-10T16:06:04.318Z,81.00
2019-03-10T16:08:34.928Z,79.80
2019-03-10T16:11:04.701Z,79.20
2019-03-10T16:13:34.624Z,79.50
2019-03-10T16:16:04.730Z,78.10
2019-03-10T16:18:38.240Z,77.90
2019-03-10T16:21:08.036Z,77.80
2019-03-10T16:23:38.575Z,78.20
2019-03-10T16:26:08.433Z,75.80
2019-03-10T16:28:39.020Z,74.40
2019-03-10T16:31:08.840Z,74.70
2019-03-10T16:33:39.538Z,74.40
2019-03-10T16:36:10.134Z,74.80
2019-03-10T16:38:40.471Z,74.00
2019-03-10T16:41:10.257Z,73.40
2019-03-10T16:43:40.362Z,72.70
2019-03-10T16:46:10.208Z,72.50
2019-03-10T16:48:41.828Z,73.80
2019-03-10T16:51:11.576Z,75.30
2019-03-10T16:53:41.992Z,76.20
2019-03-10T16:56:11.821Z,76.00
2019-03-10T16:58:41.730Z,74.50
2019-03-10T17:01:11.715Z,73.40
2019-03-10T17:03:42.328Z,73.50
2019-03-10T17:06:12.234Z,73.40
2019-03-10T17:08:41.972Z,72.50
2019-03-10T17:11:12.633Z,72.50
2019-03-10T17:13:43.223Z,73.20
2019-03-10T17:16:13.072Z,72.50
2019-03-10T17:18:42.800Z,72.20
2019-03-10T17:21:12.682Z,71.40
2019-03-10T17:23:42.807Z,71.50
2019-03-10T17:26:12.844Z,71.60
2019-03-10T17:28:42.571Z,72.30
2019-03-10T17:31:12.297Z,72.10
2019-03-10T17:33:42.076Z,72.80
2019-03-10T17:36:15.976Z,72.70
2019-03-10T17:38:45.743Z,72.90
2019-03-10T17:41:15.516Z,73.30
2019-03-10T17:43:45.875Z,73.00
2019-03-10T17:46:15.558Z,73.00
2019-03-10T17:48:45.395Z,73.50
2019-03-10T17:51:15.094Z,73.20
2019-03-10T17:53:44.886Z,72.90
2019-03-10T17:56:14.701Z,72.50
2019-03-10T17:58:44.667Z,72.00
2019-03-10T18:01:14.385Z,70.30
2019-03-10T18:03:44.121Z,69.30
2019-03-10T18:06:13.840Z,69.30
2019-03-10T18:08:43.633Z,68.90
2019-03-10T18:11:13.364Z,69.60
2019-03-10T18:16:38.089Z,70.40
2019-03-10T18:19:07.825Z,69.80
2019-03-10T18:21:37.518Z,70.10
2019-03-10T18:24:07.697Z,69.70
2019-03-10T18:26:37.312Z,69.90
2019-03-10T18:29:07.138Z,69.40
2019-03-10T18:31:36.871Z,69.10
2019-03-10T18:34:08.909Z,68.90
2019-03-10T18:36:38.711Z,68.40
2019-03-10T18:39:08.639Z,68.00
2019-03-10T18:41:38.313Z,68.70
2019-03-10T18:44:08.881Z,67.70
2019-03-10T18:46:38.626Z,66.80
2019-03-10T18:49:08.200Z,67.60
2019-03-10T18:51:37.866Z,67.60
2019-03-10T18:54:08.804Z,67.40
2019-03-10T18:56:39.583Z,68.10
2019-03-10T18:59:09.145Z,67.70
2019-03-10T19:01:38.821Z,67.80
2019-03-10T19:04:09.024Z,68.20
2019-03-10T19:06:38.684Z,68.40
2019-03-10T19:09:08.806Z,68.30
2019-03-10T19:11:39.538Z,68.10
2019-03-10T19:14:09.535Z,69.00
2019-03-10T19:16:39.496Z,68.80
2019-03-10T19:19:09.567Z,69.50
2019-03-10T19:21:39.506Z,69.90
2019-03-10T19:24:10.397Z,70.30
2019-03-10T19:26:40.480Z,70.30
2019-03-10T19:29:10.459Z,69.70
2019-03-10T19:31:41.408Z,70.00
2019-03-10T19:34:11.385Z,69.90
2019-03-10T19:36:40.991Z,70.70
2019-03-10T19:39:10.570Z,70.80
2019-03-10T19:41:41.231Z,71.30
2019-03-10T19:44:10.948Z,71.10
2019-03-10T19:46:40.555Z,71.50
2019-03-10T19:49:10.376Z,70.80
2019-03-10T19:51:39.960Z,70.60
2019-03-10T19:54:09.579Z,71.10
2019-03-10T19:56:39.163Z,70.70
2019-03-10T19:59:09.135Z,71.20
2019-03-10T20:01:38.687Z,70.50
2019-03-10T20:04:08.493Z,70.90
2019-03-10T20:06:38.347Z,71.10
2019-03-10T20:09:08.246Z,71.00
2019-03-10T20:11:38.324Z,70.80
2019-03-10T20:14:09.007Z,71.70
2019-03-10T20:16:38.682Z,71.80
2019-03-10T20:19:08.511Z,71.70
2019-03-10T20:21:38.070Z,72.00
2019-03-10T20:24:07.743Z,71.50
2019-03-10T20:26:37.256Z,72.40
2019-03-10T20:29:06.922Z,73.20
2019-03-10T20:31:36.550Z,73.20
2019-03-10T20:34:06.219Z,73.30
2019-03-10T20:36:35.733Z,73.80
2019-03-10T20:39:07.590Z,72.90
2019-03-10T20:41:37.115Z,72.60
2019-03-10T20:44:09.441Z,72.10
2019-03-10T20:46:38.968Z,72.20
2019-03-10T20:49:08.964Z,71.60
2019-03-10T20:51:38.508Z,71.10
2019-03-10T20:54:12.171Z,71.20
2019-03-10T20:56:41.727Z,71.20
2019-03-10T20:59:11.889Z,71.40
2019-03-10T21:01:42.454Z,70.70
2019-03-10T21:04:12.136Z,71.60
2019-03-10T21:06:42.713Z,72.30
2019-03-10T21:09:13.365Z,71.50
2019-03-10T21:11:44.995Z,72.80
2019-03-10T21:14:14.935Z,74.50
2019-03-10T21:16:44.740Z,78.00
2019-03-10T21:19:14.733Z,79.40
2019-03-10T21:21:44.404Z,81.10
2019-03-10T21:24:13.943Z,82.10
2019-03-10T21:26:43.667Z,82.30
2019-03-10T21:29:13.229Z,82.20
2019-03-10T21:31:43.339Z,81.60
2019-03-10T21:34:12.939Z,81.90
2019-03-10T21:36:43.300Z,81.20
2019-03-10T21:39:12.824Z,80.20
2019-03-10T21:41:42.715Z,80.60
2019-03-10T21:44:12.591Z,80.10
2019-03-10T21:46:42.595Z,82.00
2019-03-10T21:49:12.128Z,83.10
2019-03-10T21:51:41.864Z,84.20
2019-03-10T21:54:11.398Z,84.80
2019-03-10T21:56:41.052Z,86.50
2019-03-10T21:59:11.200Z,88.00
2019-03-10T22:01:40.814Z,90.20
2019-03-10T22:04:10.427Z,90.30
2019-03-10T22:06:40.408Z,91.30
2019-03-10T22:09:10.280Z,91.30
2019-03-10T22:11:40.177Z,91.70
2019-03-10T22:14:11.291Z,91.90
2019-03-10T22:16:41.143Z,92.10
2019-03-10T22:19:21.891Z,92.20
2019-03-10T22:21:42.340Z,92.40
2019-03-10T22:24:12.247Z,92.00
2019-03-10T22:26:41.860Z,92.00
2019-03-10T22:29:11.424Z,91.90
2019-03-10T22:31:41.080Z,92.00
2019-03-10T22:34:10.695Z,92.20
2019-03-10T22:36:40.350Z,92.10
2019-03-10T22:39:09.911Z,92.30
2019-03-10T22:41:39.648Z,92.30
2019-03-10T22:44:09.194Z,91.90
2019-03-10T22:46:38.875Z,92.00
2019-03-10T22:49:08.443Z,91.90
2019-03-10T22:51:38.615Z,91.90
2019-03-10T22:54:08.119Z,92.00
2019-03-10T22:56:37.750Z,92.30
2019-03-10T22:59:07.257Z,91.60
2019-03-10T23:01:36.915Z,91.40
2019-03-10T23:04:06.424Z,91.50
2019-03-10T23:06:36.155Z,91.30
2019-03-10T23:09:08.254Z,90.60
2019-03-10T23:11:38.900Z,90.10
2019-03-10T23:14:08.427Z,89.30
2019-03-10T23:16:38.172Z,88.30
2019-03-10T23:19:07.714Z,88.40
2019-03-10T23:21:37.385Z,88.20
2019-03-10T23:24:06.959Z,88.40
2019-03-10T23:26:36.918Z,87.70
2019-03-10T23:29:06.578Z,86.80
2019-03-10T23:31:36.186Z,87.30
2019-03-10T23:34:06.039Z,86.40
2019-03-10T23:36:35.707Z,85.70
2019-03-10T23:39:06.463Z,86.50
2019-03-10T23:41:36.165Z,87.10
2019-03-10T23:44:05.656Z,86.40
2019-03-10T23:46:35.166Z,86.70
2019-03-10T23:49:05.127Z,86.50
2019-03-10T23:51:34.803Z,86.50
2019-03-10T23:54:04.502Z,86.00
2019-03-10T23:56:34.090Z,86.80
2019-03-10T23:59:03.694Z,86.80
